sensor_id;sensor_type;location;lat;lon;timestamp;pressure;altitude;pressure_sealevel;temperature;humidity
6899;BME280;3488;42.616;23.350;2023-05-10T00:01:45;62874.63;;;8.55;100.00
6899;BME280;3488;42.616;23.350;2023-05-10T00:04:14;62876.09;;;8.51;100.00
6899;BME280;3488;42.616;23.350;2023-05-10T00:06:41;62869.38;;;8.45;100.00
6899;BME280;3488;42.616;23.350;2023-05-10T00:09:08;62864.31;;;8.45;100.00
6899;BME280;3488;42.616;23.350;2023-05-10T00:11:35;62863.66;;;8.37;100.00
6899;BME280;3488;42.616;23.350;2023-05-10T00:14:03;62864.16;;;8.37;100.00
6899;BME280;3488;42.616;23.350;2023-05-10T00:16:30;62858.63;;;8.39;100.00
6899;BME280;3488;42.616;23.350;2023-05-10T00:18:57;62864.31;;;8.45;100.00
6899;BME280;3488;42.616;23.350;2023-05-10T00:21:26;62869.91;;;8.45;100.00
6899;BME280;3488;42.616;23.350;2023-05-10T00:23:53;62876.56;;;8.49;100.00
6899;BME280;3488;42.616;23.350;2023-05-10T00:26:20;62879.69;;;8.55;100.00
6899;BME280;3488;42.616;23.350;2023-05-10T00:28:48;62869.94;;;8.48;100.00
6899;BME280;3488;42.616;23.350;2023-05-10T00:31:15;62860.13;;;8.38;100.00
6899;BME280;3488;42.616;23.350;2023-05-10T00:33:42;62870.44;;;8.48;100.00
6899;BME280;3488;42.616;23.350;2023-05-10T00:36:09;62870.91;;;8.46;100.00
6899;BME280;3488;42.616;23.350;2023-05-10T00:38:37;62864.72;;;8.40;100.00
6899;BME280;3488;42.616;23.350;2023-05-10T00:41:04;62858.63;;;8.39;100.00
6899;BME280;3488;42.616;23.350;2023-05-10T00:43:32;62866.28;;;8.42;100.00
6899;BME280;3488;42.616;23.350;2023-05-10T00:45:59;62860.69;;;8.41;100.00
6899;BME280;3488;42.616;23.350;2023-05-10T00:48:26;62850.31;;;8.29;100.00
6899;BME280;3488;42.616;23.350;2023-05-10T00:50:55;62855.97;;;8.32;100.00
6899;BME280;3488;42.616;23.350;2023-05-10T00:53:22;62861.63;;;8.37;100.00
6899;BME280;3488;42.616;23.350;2023-05-10T00:55:50;62867.81;;;8.43;100.00
6899;BME280;3488;42.616;23.350;2023-05-10T00:58:18;62858.06;;;8.36;100.00
6899;BME280;3488;42.616;23.350;2023-05-10T01:00:46;62853.97;;;8.35;100.00
6899;BME280;3488;42.616;23.350;2023-05-10T01:03:14;62866.28;;;8.42;100.00
6899;BME280;3488;42.616;23.350;2023-05-10T01:05:40;62858.63;;;8.39;100.00
6899;BME280;3488;42.616;23.350;2023-05-10T01:08:08;62873.50;;;8.49;100.00
6899;BME280;3488;42.616;23.350;2023-05-10T01:10:35;62863.69;;;8.39;100.00
6899;BME280;3488;42.616;23.350;2023-05-10T01:13:03;62852.38;;;8.31;100.00
6899;BME280;3488;42.616;23.350;2023-05-10T01:15:31;62851.28;;;8.27;100.00
6899;BME280;3488;42.616;23.350;2023-05-10T01:17:59;62851.28;;;8.27;100.00
6899;BME280;3488;42.616;23.350;2023-05-10T01:20:31;62861.53;;;8.32;100.00
6899;BME280;3488;42.616;23.350;2023-05-10T01:23:12;62843.06;;;8.21;100.00
6899;BME280;3488;42.616;23.350;2023-05-10T01:29:13;62850.78;;;8.27;100.00
6899;BME280;3488;42.616;23.350;2023-05-10T01:32:17;62841.00;;;8.19;100.00
6899;BME280;3488;42.616;23.350;2023-05-10T01:34:54;62849.28;;;8.28;100.00
6899;BME280;3488;42.616;23.350;2023-05-10T01:37:31;62837.88;;;8.16;100.00
6899;BME280;3488;42.616;23.350;2023-05-10T01:40:05;62805.88;;;7.85;100.00
6899;BME280;3488;42.616;23.350;2023-05-10T01:42:39;62849.84;;;8.31;100.00
6899;BME280;3488;42.616;23.350;2023-05-10T01:45:14;62859.00;;;8.32;100.00
6899;BME280;3488;42.616;23.350;2023-05-10T01:47:50;62858.63;;;8.39;100.00
6899;BME280;3488;42.616;23.350;2023-05-10T01:50:24;62858.06;;;8.36;100.00
6899;BME280;3488;42.616;23.350;2023-05-10T01:52:56;62854.44;;;8.33;100.00
6899;BME280;3488;42.616;23.350;2023-05-10T01:55:27;62851.28;;;8.27;100.00
6899;BME280;3488;42.616;23.350;2023-05-10T01:58:01;62853.91;;;8.32;100.00
6899;BME280;3488;42.616;23.350;2023-05-10T02:00:29;62852.81;;;8.26;100.00
6899;BME280;3488;42.616;23.350;2023-05-10T02:03:00;62849.69;;;8.23;100.00
6899;BME280;3488;42.616;23.350;2023-05-10T02:05:30;62836.81;;;8.13;100.00
6899;BME280;3488;42.616;23.350;2023-05-10T02:07:59;62839.94;;;8.16;100.00
6899;BME280;3488;42.616;23.350;2023-05-10T02:10:28;62834.34;;;8.15;100.00
6899;BME280;3488;42.616;23.350;2023-05-10T02:12:58;62838.41;;;8.17;100.00
6899;BME280;3488;42.616;23.350;2023-05-10T02:15:27;62845.66;;;8.24;100.00
6899;BME280;3488;42.616;23.350;2023-05-10T02:17:55;62841.50;;;8.20;100.00
6899;BME280;3488;42.616;23.350;2023-05-10T02:20:26;62845.59;;;8.21;100.00
6899;BME280;3488;42.616;23.350;2023-05-10T02:22:55;62848.28;;;8.29;100.00
6899;BME280;3488;42.616;23.350;2023-05-10T02:25:23;62858.50;;;8.32;100.00
6899;BME280;3488;42.616;23.350;2023-05-10T02:27:54;62841.47;;;8.17;100.00
6899;BME280;3488;42.616;23.350;2023-05-10T02:30:22;62835.25;;;8.11;100.00
6899;BME280;3488;42.616;23.350;2023-05-10T02:32:51;62819.88;;;8.01;100.00
6899;BME280;3488;42.616;23.350;2023-05-10T02:35:19;62816.72;;;7.96;100.00
6899;BME280;3488;42.616;23.350;2023-05-10T02:37:48;62799.63;;;7.77;100.00
6899;BME280;3488;42.616;23.350;2023-05-10T02:40:18;62777.03;;;7.60;100.00
6899;BME280;3488;42.616;23.350;2023-05-10T02:42:47;62782.63;;;7.60;100.00
6899;BME280;3488;42.616;23.350;2023-05-10T02:45:19;62778.53;;;7.59;100.00
6899;BME280;3488;42.616;23.350;2023-05-10T02:47:47;62781.09;;;7.61;100.00
6899;BME280;3488;42.616;23.350;2023-05-10T02:50:14;62791.94;;;7.72;100.00
6899;BME280;3488;42.616;23.350;2023-05-10T02:52:45;62782.09;;;7.60;100.00
6899;BME280;3488;42.616;23.350;2023-05-10T02:55:16;62779.53;;;7.57;100.00
6899;BME280;3488;42.616;23.350;2023-05-10T02:57:56;62766.66;;;7.47;100.00
6899;BME280;3488;42.616;23.350;2023-05-10T03:00:26;62757.28;;;7.33;100.00
6899;BME280;3488;42.616;23.350;2023-05-10T03:02:54;62744.38;;;7.21;100.00
6899;BME280;3488;42.616;23.350;2023-05-10T03:05:21;62727.47;;;7.09;100.00
6899;BME280;3488;42.616;23.350;2023-05-10T03:07:49;62733.59;;;7.13;100.00
6899;BME280;3488;42.616;23.350;2023-05-10T03:10:18;62750.09;;;7.29;100.00
6899;BME280;3488;42.616;23.350;2023-05-10T03:12:55;62739.25;;;7.18;100.00
6899;BME280;3488;42.616;23.350;2023-05-10T03:15:39;62756.81;;;7.35;100.00
6899;BME280;3488;42.616;23.350;2023-05-10T03:18:11;62757.38;;;7.38;100.00
6899;BME280;3488;42.616;23.350;2023-05-10T03:20:42;62756.31;;;7.35;100.00
6899;BME280;3488;42.616;23.350;2023-05-10T03:23:13;62753.72;;;7.32;100.00
6899;BME280;3488;42.616;23.350;2023-05-10T03:25:46;62748.56;;;7.27;100.00
6899;BME280;3488;42.616;23.350;2023-05-10T03:28:18;62743.91;;;7.23;100.00
6899;BME280;3488;42.616;23.350;2023-05-10T03:30:47;62738.28;;;7.20;100.00
6899;BME280;3488;42.616;23.350;2023-05-10T03:33:15;62754.19;;;7.30;100.00
6899;BME280;3488;42.616;23.350;2023-05-10T03:35:42;62748.59;;;7.30;100.00
6899;BME280;3488;42.616;23.350;2023-05-10T03:38:11;62739.88;;;7.24;100.00
6899;BME280;3488;42.616;23.350;2023-05-10T03:40:39;62733.03;;;7.10;100.00
6899;BME280;3488;42.616;23.350;2023-05-10T03:43:08;62739.41;;;7.26;100.00
6899;BME280;3488;42.616;23.350;2023-05-10T03:45:35;62753.31;;;7.37;100.00
6899;BME280;3488;42.616;23.350;2023-05-10T03:48:02;62756.31;;;7.35;100.00
6899;BME280;3488;42.616;23.350;2023-05-10T03:50:30;62755.25;;;7.34;100.00
6899;BME280;3488;42.616;23.350;2023-05-10T03:52:57;62739.34;;;7.23;100.00
6899;BME280;3488;42.616;23.350;2023-05-10T03:55:24;62748.03;;;7.27;100.00
6899;BME280;3488;42.616;23.350;2023-05-10T03:57:51;62750.09;;;7.29;100.00
6899;BME280;3488;42.616;23.350;2023-05-10T04:00:20;62738.25;;;7.17;100.00
6899;BME280;3488;42.616;23.350;2023-05-10T04:02:48;62737.78;;;7.19;100.00
6899;BME280;3488;42.616;23.350;2023-05-10T04:05:15;62740.88;;;7.22;100.00
6899;BME280;3488;42.616;23.350;2023-05-10T04:07:42;62742.38;;;7.21;100.00
6899;BME280;3488;42.616;23.350;2023-05-10T04:10:10;62741.84;;;7.21;100.00
6899;BME280;3488;42.616;23.350;2023-05-10T04:12:38;62753.75;;;7.35;100.00
6899;BME280;3488;42.616;23.350;2023-05-10T04:15:06;62751.22;;;7.35;100.00
6899;BME280;3488;42.616;23.350;2023-05-10T04:17:35;62758.88;;;7.37;100.00
6899;BME280;3488;42.616;23.350;2023-05-10T04:20:03;62764.09;;;7.45;100.00
6899;BME280;3488;42.616;23.350;2023-05-10T04:22:32;62767.69;;;7.48;100.00
6899;BME280;3488;42.616;23.350;2023-05-10T04:24:59;62775.91;;;7.54;100.00
6899;BME280;3488;42.616;23.350;2023-05-10T04:27:25;62774.47;;;7.57;100.00
6899;BME280;3488;42.616;23.350;2023-05-10T04:29:53;62778.47;;;7.56;100.00
6899;BME280;3488;42.616;23.350;2023-05-10T04:32:20;62791.91;;;7.69;100.00
6899;BME280;3488;42.616;23.350;2023-05-10T04:34:49;62762.03;;;7.43;100.00
6899;BME280;3488;42.616;23.350;2023-05-10T04:37:18;62767.72;;;7.51;100.00
6899;BME280;3488;42.616;23.350;2023-05-10T04:39:45;62766.66;;;7.47;100.00
6899;BME280;3488;42.616;23.350;2023-05-10T04:42:13;62775.94;;;7.56;100.00
6899;BME280;3488;42.616;23.350;2023-05-10T04:44:41;62785.72;;;7.63;100.00
6899;BME280;3488;42.616;23.350;2023-05-10T04:47:08;62785.72;;;7.63;100.00
6899;BME280;3488;42.616;23.350;2023-05-10T04:49:35;62797.09;;;7.77;100.00
6899;BME280;3488;42.616;23.350;2023-05-10T04:52:04;62806.38;;;7.83;100.00
6899;BME280;3488;42.616;23.350;2023-05-10T04:54:31;62801.19;;;7.78;100.00
6899;BME280;3488;42.616;23.350;2023-05-10T04:56:58;62803.72;;;7.78;100.00
6899;BME280;3488;42.616;23.350;2023-05-10T04:59:26;62787.31;;;7.67;100.00
6899;BME280;3488;42.616;23.350;2023-05-10T05:01:53;62794.00;;;7.74;100.00
6899;BME280;3488;42.616;23.350;2023-05-10T05:04:21;62793.03;;;7.75;100.00
6899;BME280;3488;42.616;23.350;2023-05-10T05:06:48;62812.03;;;7.89;100.00
6899;BME280;3488;42.616;23.350;2023-05-10T05:09:17;62817.72;;;7.94;100.00
6899;BME280;3488;42.616;23.350;2023-05-10T05:11:44;62809.00;;;7.88;100.00
6899;BME280;3488;42.616;23.350;2023-05-10T05:14:11;62809.97;;;7.87;100.00
6899;BME280;3488;42.616;23.350;2023-05-10T05:16:38;62817.28;;;7.99;100.00
6899;BME280;3488;42.616;23.350;2023-05-10T05:19:05;62814.72;;;7.96;100.00
6899;BME280;3488;42.616;23.350;2023-05-10T05:21:33;62812.56;;;7.89;100.00
6899;BME280;3488;42.616;23.350;2023-05-10T05:24:00;62812.59;;;7.92;100.00
6899;BME280;3488;42.616;23.350;2023-05-10T05:26:28;62806.88;;;7.84;100.00
6899;BME280;3488;42.616;23.350;2023-05-10T05:28:55;62803.84;;;7.83;100.00
6899;BME280;3488;42.616;23.350;2023-05-10T05:31:23;62818.22;;;7.95;100.00
6899;BME280;3488;42.616;23.350;2023-05-10T05:33:50;62813.06;;;7.90;100.00
6899;BME280;3488;42.616;23.350;2023-05-10T05:36:17;62819.31;;;7.98;100.00
6899;BME280;3488;42.616;23.350;2023-05-10T05:38:44;62821.84;;;7.98;100.00
6899;BME280;3488;42.616;23.350;2023-05-10T05:41:11;62827.53;;;8.04;100.00
6899;BME280;3488;42.616;23.350;2023-05-10T05:43:40;62821.31;;;7.98;100.00
6899;BME280;3488;42.616;23.350;2023-05-10T05:46:07;62811.63;;;7.93;100.00
6899;BME280;3488;42.616;23.350;2023-05-10T05:48:34;62815.19;;;7.94;100.00
6899;BME280;3488;42.616;23.350;2023-05-10T05:51:01;62813.06;;;7.90;100.00
6899;BME280;3488;42.616;23.350;2023-05-10T05:53:28;62812.09;;;7.91;100.00
6899;BME280;3488;42.616;23.350;2023-05-10T05:55:57;62818.22;;;7.95;100.00
6899;BME280;3488;42.616;23.350;2023-05-10T05:58:24;62802.25;;;7.82;100.00
6899;BME280;3488;42.616;23.350;2023-05-10T06:00:53;62812.09;;;7.91;100.00
6899;BME280;3488;42.616;23.350;2023-05-10T06:03:21;62803.78;;;7.81;100.00
6899;BME280;3488;42.616;23.350;2023-05-10T06:05:48;62791.28;;;7.64;100.00
6899;BME280;3488;42.616;23.350;2023-05-10T06:08:15;62794.47;;;7.72;100.00
6899;BME280;3488;42.616;23.350;2023-05-10T06:10:42;62797.09;;;7.77;100.00
6899;BME280;3488;42.616;23.350;2023-05-10T06:13:09;62812.03;;;7.89;100.00
6899;BME280;3488;42.616;23.350;2023-05-10T06:15:36;62812.03;;;7.89;100.00
6899;BME280;3488;42.616;23.350;2023-05-10T06:18:06;62808.41;;;7.85;100.00
6899;BME280;3488;42.616;23.350;2023-05-10T06:20:33;62818.75;;;7.95;100.00
6899;BME280;3488;42.616;23.350;2023-05-10T06:23:00;62829.13;;;8.08;100.00
6899;BME280;3488;42.616;23.350;2023-05-10T06:25:27;62827.47;;;8.01;100.00
6899;BME280;3488;42.616;23.350;2023-05-10T06:27:54;62842.41;;;8.13;100.00
6899;BME280;3488;42.616;23.350;2023-05-10T06:30:24;62839.94;;;8.16;100.00
6899;BME280;3488;42.616;23.350;2023-05-10T06:32:54;62838.88;;;8.15;100.00
6899;BME280;3488;42.616;23.350;2023-05-10T06:35:23;62841.97;;;8.18;100.00
6899;BME280;3488;42.616;23.350;2023-05-10T06:37:50;62842.56;;;8.21;100.00
6899;BME280;3488;42.616;23.350;2023-05-10T06:40:18;62852.28;;;8.26;100.00
6899;BME280;3488;42.616;23.350;2023-05-10T06:42:45;62835.88;;;8.17;100.00
6899;BME280;3488;42.616;23.350;2023-05-10T06:45:13;62845.16;;;8.24;100.00
6899;BME280;3488;42.616;23.350;2023-05-10T06:47:40;62849.31;;;8.30;100.00
6899;BME280;3488;42.616;23.350;2023-05-10T06:50:08;62848.72;;;8.25;100.00
6899;BME280;3488;42.616;23.350;2023-05-10T06:52:37;62860.53;;;8.34;100.00
6899;BME280;3488;42.616;23.350;2023-05-10T06:55:05;62867.31;;;8.43;100.00
6899;BME280;3488;42.616;23.350;2023-05-10T06:57:32;62872.00;;;8.50;100.00
6899;BME280;3488;42.616;23.350;2023-05-10T06:59:59;62881.72;;;8.54;100.00
6899;BME280;3488;42.616;23.350;2023-05-10T07:02:26;62866.78;;;8.42;100.00
6899;BME280;3488;42.616;23.350;2023-05-10T07:04:53;62873.50;;;8.49;100.00
6899;BME280;3488;42.616;23.350;2023-05-10T07:07:21;62875.06;;;8.50;100.00
6899;BME280;3488;42.616;23.350;2023-05-10T07:09:49;62857.03;;;8.35;100.00
6899;BME280;3488;42.616;23.350;2023-05-10T07:12:16;62856.97;;;8.33;100.00
6899;BME280;3488;42.616;23.350;2023-05-10T07:14:43;62847.16;;;8.23;100.00
6899;BME280;3488;42.616;23.350;2023-05-10T07:17:10;62851.84;;;8.30;100.00
6899;BME280;3488;42.616;23.350;2023-05-10T07:19:37;62853.38;;;8.29;100.00
6899;BME280;3488;42.616;23.350;2023-05-10T07:22:04;62861.63;;;8.37;100.00
6899;BME280;3488;42.616;23.350;2023-05-10T07:24:31;62831.25;;;8.12;100.00
6899;BME280;3488;42.616;23.350;2023-05-10T07:27:00;62837.38;;;8.16;100.00
6899;BME280;3488;42.616;23.350;2023-05-10T07:29:28;62846.13;;;8.22;100.00
6899;BME280;3488;42.616;23.350;2023-05-10T07:31:55;62838.88;;;8.15;100.00
6899;BME280;3488;42.616;23.350;2023-05-10T07:34:22;62850.31;;;8.29;100.00
6899;BME280;3488;42.616;23.350;2023-05-10T07:36:51;62854.44;;;8.33;100.00
6899;BME280;3488;42.616;23.350;2023-05-10T07:39:19;62848.75;;;8.27;100.00
6899;BME280;3488;42.616;23.350;2023-05-10T07:41:46;62838.84;;;8.12;100.00
6899;BME280;3488;42.616;23.350;2023-05-10T07:44:14;62827.00;;;8.03;100.00
6899;BME280;3488;42.616;23.350;2023-05-10T07:46:43;62819.22;;;7.93;100.00
6899;BME280;3488;42.616;23.350;2023-05-10T07:49:10;62823.44;;;8.02;100.00
6899;BME280;3488;42.616;23.350;2023-05-10T07:51:37;62821.84;;;7.98;100.00
6899;BME280;3488;42.616;23.350;2023-05-10T07:54:04;62828.00;;;8.02;100.00
6899;BME280;3488;42.616;23.350;2023-05-10T07:56:33;62833.28;;;8.14;100.00
6899;BME280;3488;42.616;23.350;2023-05-10T07:59:01;62854.91;;;8.31;100.00
6899;BME280;3488;42.616;23.350;2023-05-10T08:01:31;62876.56;;;8.49;100.00
6899;BME280;3488;42.616;23.350;2023-05-10T08:03:58;62891.03;;;8.63;100.00
6899;BME280;3488;42.616;23.350;2023-05-10T08:06:27;62880.25;;;8.58;100.00
6899;BME280;3488;42.616;23.350;2023-05-10T08:08:55;62878.16;;;8.53;100.00
6899;BME280;3488;42.616;23.350;2023-05-10T08:11:22;62883.31;;;8.58;100.00
6899;BME280;3488;42.616;23.350;2023-05-10T08:13:50;62887.53;;;8.67;100.00
6899;BME280;3488;42.616;23.350;2023-05-10T08:16:17;62877.13;;;8.52;100.00
6899;BME280;3488;42.616;23.350;2023-05-10T08:18:46;62870.41;;;8.46;100.00
6899;BME280;3488;42.616;23.350;2023-05-10T08:21:14;62878.16;;;8.53;100.00
6899;BME280;3488;42.616;23.350;2023-05-10T08:23:41;62879.69;;;8.55;100.00
6899;BME280;3488;42.616;23.350;2023-05-10T08:26:09;62891.03;;;8.63;100.00
6899;BME280;3488;42.616;23.350;2023-05-10T08:28:36;62890.53;;;8.63;100.00
6899;BME280;3488;42.616;23.350;2023-05-10T08:31:04;62899.34;;;8.74;100.00
6899;BME280;3488;42.616;23.350;2023-05-10T08:33:31;62898.31;;;8.73;100.00
6899;BME280;3488;42.616;23.350;2023-05-10T08:36:00;62911.72;;;8.86;100.00
6899;BME280;3488;42.616;23.350;2023-05-10T08:38:27;62902.94;;;8.77;100.00
6899;BME280;3488;42.616;23.350;2023-05-10T08:40:54;62909.19;;;8.86;100.00
6899;BME280;3488;42.616;23.350;2023-05-10T08:43:26;62916.44;;;8.93;100.00
6899;BME280;3488;42.616;23.350;2023-05-10T08:45:54;62922.59;;;8.96;100.00
6899;BME280;3488;42.616;23.350;2023-05-10T08:48:23;62928.19;;;8.97;100.00
6899;BME280;3488;42.616;23.350;2023-05-10T08:50:53;62932.44;;;9.08;100.00
6899;BME280;3488;42.616;23.350;2023-05-10T08:53:24;62943.34;;;9.21;100.00
6899;BME280;3488;42.616;23.350;2023-05-10T08:55:53;62965.44;;;9.35;100.00
6899;BME280;3488;42.616;23.350;2023-05-10T08:58:20;62948.41;;;9.21;100.00
6899;BME280;3488;42.616;23.350;2023-05-10T09:00:49;62942.19;;;9.13;100.00
6899;BME280;3488;42.616;23.350;2023-05-10T09:03:17;62953.56;;;9.24;100.00
6899;BME280;3488;42.616;23.350;2023-05-10T09:05:45;62960.84;;;9.33;100.00
6899;BME280;3488;42.616;23.350;2023-05-10T09:08:13;62948.84;;;9.17;100.00
6899;BME280;3488;42.616;23.350;2023-05-10T09:10:43;62952.03;;;9.25;100.00
6899;BME280;3488;42.616;23.350;2023-05-10T09:13:14;62961.88;;;9.34;100.00
6899;BME280;3488;42.616;23.350;2023-05-10T09:15:41;62962.41;;;9.35;100.00
6899;BME280;3488;42.616;23.350;2023-05-10T09:18:11;62970.22;;;9.48;100.00
6899;BME280;3488;42.616;23.350;2023-05-10T09:20:38;62980.44;;;9.50;100.00
6899;BME280;3488;42.616;23.350;2023-05-10T09:23:06;62971.13;;;9.41;100.00
6899;BME280;3488;42.616;23.350;2023-05-10T09:25:33;62962.41;;;9.35;100.00
6899;BME280;3488;42.616;23.350;2023-05-10T09:28:06;62961.34;;;9.34;100.00
6899;BME280;3488;42.616;23.350;2023-05-10T09:30:33;62986.16;;;9.58;100.00
6899;BME280;3488;42.616;23.350;2023-05-10T09:33:00;62981.56;;;9.56;100.00
6899;BME280;3488;42.616;23.350;2023-05-10T09:35:29;63002.72;;;9.74;100.00
6899;BME280;3488;42.616;23.350;2023-05-10T09:37:58;63008.91;;;9.80;100.00
6899;BME280;3488;42.616;23.350;2023-05-10T09:40:30;63023.91;;;9.95;100.00
6899;BME280;3488;42.616;23.350;2023-05-10T09:42:58;63023.97;;;9.97;100.00
6899;BME280;3488;42.616;23.350;2023-05-10T09:45:30;63038.47;;;10.11;100.00
6899;BME280;3488;42.616;23.350;2023-05-10T09:47:59;63047.25;;;10.20;100.00
6899;BME280;3488;42.616;23.350;2023-05-10T09:50:27;63038.50;;;10.14;100.00
6899;BME280;3488;42.616;23.350;2023-05-10T09:52:56;63047.78;;;10.20;100.00
6899;BME280;3488;42.616;23.350;2023-05-10T09:55:25;63053.94;;;10.24;100.00
6899;BME280;3488;42.616;23.350;2023-05-10T09:57:59;63043.06;;;10.13;100.00
6899;BME280;3488;42.616;23.350;2023-05-10T10:00:28;63045.59;;;10.11;100.00
6899;BME280;3488;42.616;23.350;2023-05-10T10:03:01;63019.75;;;9.88;100.00
6899;BME280;3488;42.616;23.350;2023-05-10T10:05:30;63009.97;;;9.81;100.00
6899;BME280;3488;42.616;23.350;2023-05-10T10:07:58;63017.19;;;9.88;100.00
6899;BME280;3488;42.616;23.350;2023-05-10T10:10:26;63015.16;;;9.89;100.00
6899;BME280;3488;42.616;23.350;2023-05-10T10:12:54;62978.41;;;9.51;100.00
6899;BME280;3488;42.616;23.350;2023-05-10T10:15:22;63002.16;;;9.71;100.00
6899;BME280;3488;42.616;23.350;2023-05-10T10:17:52;63017.22;;;9.91;100.00
6899;BME280;3488;42.616;23.350;2023-05-10T10:20:20;63031.16;;;10.02;100.00
6899;BME280;3488;42.616;23.350;2023-05-10T10:22:48;63033.75;;;10.04;100.00
6899;BME280;3488;42.616;23.350;2023-05-10T10:25:17;63035.41;;;10.11;100.00
6899;BME280;3488;42.616;23.350;2023-05-10T10:27:54;63046.16;;;10.16;100.00
6899;BME280;3488;42.616;23.350;2023-05-10T10:30:29;63046.78;;;10.22;100.00
6899;BME280;3488;42.616;23.350;2023-05-10T10:33:22;63053.94;;;10.24;100.00
6899;BME280;3488;42.616;23.350;2023-05-10T10:35:52;63071.53;;;10.41;100.00
6899;BME280;3488;42.616;23.350;2023-05-10T10:38:20;63080.28;;;10.47;100.00
6899;BME280;3488;42.616;23.350;2023-05-10T10:40:56;63074.69;;;10.46;100.00
6899;BME280;3488;42.616;23.350;2023-05-10T10:43:29;63077.22;;;10.46;100.00
6899;BME280;3488;42.616;23.350;2023-05-10T10:46:12;63070.44;;;10.37;100.00
6899;BME280;3488;42.616;23.350;2023-05-10T10:48:47;63064.25;;;10.31;100.00
6899;BME280;3488;42.616;23.350;2023-05-10T10:51:15;63045.75;;;10.21;100.00
6899;BME280;3488;42.616;23.350;2023-05-10T10:53:43;63049.78;;;10.20;100.00
6899;BME280;3488;42.616;23.350;2023-05-10T10:56:11;63031.72;;;10.05;100.00
6899;BME280;3488;42.616;23.350;2023-05-10T10:58:41;63043.63;;;10.16;100.00
6899;BME280;3488;42.616;23.350;2023-05-10T11:01:12;63030.13;;;10.01;100.00
6899;BME280;3488;42.616;23.350;2023-05-10T11:03:56;63048.72;;;10.16;100.00
6899;BME280;3488;42.616;23.350;2023-05-10T11:06:42;63045.66;;;10.16;100.00
6899;BME280;3488;42.616;23.350;2023-05-10T11:09:10;63049.38;;;10.24;100.00
6899;BME280;3488;42.616;23.350;2023-05-10T11:11:48;63059.66;;;10.32;100.00
6899;BME280;3488;42.616;23.350;2023-05-10T11:14:20;63083.44;;;10.53;100.00
6899;BME280;3488;42.616;23.350;2023-05-10T11:16:48;63086.00;;;10.53;100.00
6899;BME280;3488;42.616;23.350;2023-05-10T11:19:17;63083.47;;;10.55;100.00
6899;BME280;3488;42.616;23.350;2023-05-10T11:21:45;63095.34;;;10.64;100.00
6899;BME280;3488;42.616;23.350;2023-05-10T11:24:14;63096.88;;;10.66;100.00
6899;BME280;3488;42.616;23.350;2023-05-10T11:26:42;63098.00;;;10.72;100.00
6899;BME280;3488;42.616;23.350;2023-05-10T11:29:09;63095.38;;;10.67;100.00
6899;BME280;3488;42.616;23.350;2023-05-10T11:31:42;63107.75;;;10.76;100.00
6899;BME280;3488;42.616;23.350;2023-05-10T11:34:10;63113.94;;;10.80;100.00
6899;BME280;3488;42.616;23.350;2023-05-10T11:36:41;63086.50;;;10.53;100.00
6899;BME280;3488;42.616;23.350;2023-05-10T11:39:08;63072.06;;;10.41;100.00
6899;BME280;3488;42.616;23.350;2023-05-10T11:41:37;63072.66;;;10.47;100.00
6899;BME280;3488;42.616;23.350;2023-05-10T11:44:04;63088.09;;;10.57;100.00
6899;BME280;3488;42.616;23.350;2023-05-10T11:46:32;63100.50;;;10.69;100.00
6899;BME280;3488;42.616;23.350;2023-05-10T11:49:00;63089.13;;;10.58;100.00
6899;BME280;3488;42.616;23.350;2023-05-10T11:51:32;63097.91;;;10.67;100.00
6899;BME280;3488;42.616;23.350;2023-05-10T11:54:05;63081.94;;;10.54;100.00
6899;BME280;3488;42.616;23.350;2023-05-10T11:56:33;63067.41;;;10.37;100.00
6899;BME280;3488;42.616;23.350;2023-05-10T11:59:00;63077.84;;;10.52;100.00
6899;BME280;3488;42.616;23.350;2023-05-10T12:01:28;63092.25;;;10.61;100.00
6899;BME280;3488;42.616;23.350;2023-05-10T12:03:57;63081.38;;;10.51;100.00
6899;BME280;3488;42.616;23.350;2023-05-10T12:06:27;63072.59;;;10.44;100.00
6899;BME280;3488;42.616;23.350;2023-05-10T12:08:55;63082.31;;;10.46;100.00
6899;BME280;3488;42.616;23.350;2023-05-10T12:11:26;63074.06;;;10.41;100.00
6899;BME280;3488;42.616;23.350;2023-05-10T12:13:54;63050.31;;;10.20;100.00
6899;BME280;3488;42.616;23.350;2023-05-10T12:16:23;63072.13;;;10.46;100.00
6899;BME280;3488;42.616;23.350;2023-05-10T12:18:51;63077.22;;;10.46;100.00
6899;BME280;3488;42.616;23.350;2023-05-10T12:21:20;63072.13;;;10.46;100.00
6899;BME280;3488;42.616;23.350;2023-05-10T12:23:50;63081.47;;;10.58;100.00
6899;BME280;3488;42.616;23.350;2023-05-10T12:26:18;63086.66;;;10.63;100.00
6899;BME280;3488;42.616;23.350;2023-05-10T12:28:46;63091.75;;;10.63;100.00
6899;BME280;3488;42.616;23.350;2023-05-10T12:31:13;63111.91;;;10.80;100.00
6899;BME280;3488;42.616;23.350;2023-05-10T12:33:41;63100.53;;;10.72;100.00
6899;BME280;3488;42.616;23.350;2023-05-10T12:36:09;63105.63;;;10.72;100.00
6899;BME280;3488;42.616;23.350;2023-05-10T12:38:38;63101.53;;;10.70;100.00
6899;BME280;3488;42.616;23.350;2023-05-10T12:41:09;63104.16;;;10.75;100.00
6899;BME280;3488;42.616;23.350;2023-05-10T12:43:37;63103.59;;;10.70;100.00
6899;BME280;3488;42.616;23.350;2023-05-10T12:46:07;63079.81;;;10.49;100.00
6899;BME280;3488;42.616;23.350;2023-05-10T12:48:35;63096.41;;;10.68;100.00
6899;BME280;3488;42.616;23.350;2023-05-10T12:51:03;63095.34;;;10.64;100.00
6899;BME280;3488;42.616;23.350;2023-05-10T12:53:31;63101.63;;;10.75;100.00
6899;BME280;3488;42.616;23.350;2023-05-10T12:55:58;63096.41;;;10.68;100.00
6899;BME280;3488;42.616;23.350;2023-05-10T12:58:26;63073.16;;;10.47;100.00
6899;BME280;3488;42.616;23.350;2023-05-10T13:00:53;63051.88;;;10.22;100.00
6899;BME280;3488;42.616;23.350;2023-05-10T13:03:23;63060.66;;;10.30;100.00
6899;BME280;3488;42.616;23.350;2023-05-10T13:05:50;63050.88;;;10.23;100.00
6899;BME280;3488;42.616;23.350;2023-05-10T13:08:17;63061.72;;;10.31;100.00
6899;BME280;3488;42.616;23.350;2023-05-10T13:10:44;63062.69;;;10.30;100.00
6899;BME280;3488;42.616;23.350;2023-05-10T13:13:11;63047.75;;;10.18;100.00
6899;BME280;3488;42.616;23.350;2023-05-10T13:15:38;63031.69;;;10.02;100.00
6899;BME280;3488;42.616;23.350;2023-05-10T13:18:06;63016.66;;;9.85;100.00
6899;BME280;3488;42.616;23.350;2023-05-10T13:20:34;63027.00;;;9.98;100.00